Time;durP1;ratioP1;P1;durP2;ratioP2;P2;SDS_P1;SDS_P2;PMS_P1;PMS_P2;Temp;Humidity;BMP_temperature;BMP_pressure;BME280_temperature;BME280_humidity;BME280_pressure;Samples;Min_cycle;Max_cycle;Signal;HPM_P1;HPM_P2
2023/12/03 14:16:07;;;;;;;86.07;55.40;;;22.70;62.10;;;;;;5013775;27;20395;-71
2023/12/03 14:18:32;;;;;;;66.57;45.63;;;22.20;65.10;;;;;;5016266;28;20026;-65
2023/12/03 14:20:58;;;;;;;59.33;42.13;;;21.60;65.50;;;;;;5015243;28;20552;-64
2023/12/03 14:23:24;;;;;;;55.17;37.88;;;20.90;67.30;;;;;;5012683;28;20129;-63
2023/12/03 14:25:50;;;;;;;52.53;36.80;;;20.40;68.70;;;;;;5011972;28;20030;-63
2023/12/03 14:28:15;;;;;;;50.90;35.40;;;20.00;69.80;;;;;;5014887;28;20030;-63
2023/12/03 14:30:41;;;;;;;53.75;35.33;;;19.80;70.60;;;;;;5015912;28;20030;-63
2023/12/03 14:33:06;;;;;;;55.05;36.22;;;19.60;71.30;;;;;;5013550;28;20036;-64
2023/12/03 14:35:32;;;;;;;40.45;26.85;;;19.60;71.90;;;;;;5012507;28;20022;-63
2023/12/03 14:37:58;;;;;;;38.40;26.05;;;19.50;72.20;;;;;;5020687;28;20408;-64
2023/12/03 14:40:23;;;;;;;42.00;26.80;;;19.50;72.30;;;;;;5023912;28;20024;-63
2023/12/03 14:42:49;;;;;;;36.05;23.50;;;19.40;72.40;;;;;;5009956;28;20048;-64
2023/12/03 14:45:15;;;;;;;35.33;22.25;;;19.40;72.50;;;;;;5009919;28;20029;-64
2023/12/03 14:47:41;;;;;;;37.08;24.65;;;19.30;72.60;;;;;;5008997;28;20019;-64
2023/12/03 14:50:07;;;;;;;38.90;25.27;;;19.30;72.60;;;;;;5011066;28;20052;-64
2023/12/03 14:52:33;;;;;;;34.38;23.45;;;19.20;72.70;;;;;;5016459;28;20022;-63
2023/12/03 14:54:59;;;;;;;37.15;26.20;;;19.20;72.80;;;;;;5008018;28;20093;-63
2023/12/03 14:57:24;;;;;;;34.03;22.92;;;19.20;72.90;;;;;;5010507;28;20029;-62
2023/12/03 14:59:50;;;;;;;36.88;24.33;;;19.20;73.00;;;;;;5012623;28;20015;-62
2023/12/03 15:02:16;;;;;;;38.40;23.85;;;19.10;73.10;;;;;;5015758;28;20124;-63
2023/12/03 15:04:41;;;;;;;30.92;21.70;;;19.10;73.20;;;;;;5030554;28;20041;-62
2023/12/03 15:07:07;;;;;;;39.72;26.05;;;19.10;73.20;;;;;;5028447;28;20043;-63
2023/12/03 15:09:35;;;;;;;37.42;25.08;;;19.10;73.30;;;;;;5023804;28;20459;-63
2023/12/03 15:12:01;;;;;;;40.22;25.10;;;19.00;73.30;;;;;;5030312;28;20026;-62
2023/12/03 15:14:27;;;;;;;30.42;20.63;;;19.00;73.40;;;;;;5023348;28;20602;-63
2023/12/03 15:16:53;;;;;;;34.20;23.60;;;19.00;73.70;;;;;;5031949;28;20060;-63
2023/12/03 15:19:18;;;;;;;39.72;23.88;;;19.00;74.10;;;;;;5003308;28;20113;-62
2023/12/03 15:21:44;;;;;;;56.25;23.80;;;19.00;74.50;;;;;;5011761;28;20410;-64
2023/12/03 15:24:09;;;;;;;37.58;24.40;;;19.00;74.60;;;;;;5013019;28;20479;-64
2023/12/03 15:26:35;;;;;;;37.17;24.52;;;19.10;74.80;;;;;;5004216;28;20040;-64
2023/12/03 15:29:02;;;;;;;35.97;23.02;;;19.10;74.90;;;;;;4996957;28;20433;-64
2023/12/03 15:31:28;;;;;;;33.40;23.65;;;19.10;74.90;;;;;;4998518;28;20113;-63
2023/12/03 15:33:54;;;;;;;34.25;23.65;;;19.10;75.00;;;;;;4998572;28;20129;-64
2023/12/03 15:36:19;;;;;;;40.80;25.05;;;19.10;75.00;;;;;;5000808;28;20054;-65
2023/12/03 15:38:45;;;;;;;32.38;22.45;;;19.10;75.00;;;;;;5004981;28;20030;-65
2023/12/03 15:41:12;;;;;;;31.92;20.83;;;19.10;75.20;;;;;;5001770;28;20109;-64
2023/12/03 15:43:38;;;;;;;33.83;23.67;;;19.10;75.10;;;;;;4998861;28;20106;-65
2023/12/03 15:46:03;;;;;;;40.20;25.35;;;19.20;74.90;;;;;;4999199;28;20454;-64
2023/12/03 15:48:29;;;;;;;36.58;23.67;;;19.10;74.70;;;;;;4998948;28;20026;-64
2023/12/03 15:50:58;;;;;;;34.13;23.30;;;19.10;74.60;;;;;;5001055;28;20500;-63
2023/12/03 15:53:26;;;;;;;31.73;21.73;;;19.10;74.30;;;;;;5001982;28;20150;-63
2023/12/03 15:55:51;;;;;;;30.65;20.83;;;19.10;74.20;;;;;;4997780;28;20026;-63
2023/12/03 15:58:17;;;;;;;30.20;21.40;;;19.10;74.10;;;;;;5003840;28;20014;-63
2023/12/03 16:00:44;;;;;;;27.83;18.52;;;19.10;74.10;;;;;;4999689;28;20101;-64
2023/12/03 16:03:10;;;;;;;28.75;19.23;;;19.00;74.00;;;;;;4997938;28;20480;-64
2023/12/03 16:05:36;;;;;;;31.33;19.48;;;19.00;74.00;;;;;;4993383;28;20044;-64
2023/12/03 16:08:01;;;;;;;25.15;17.33;;;19.00;74.00;;;;;;4998583;28;20109;-64
2023/12/03 16:10:27;;;;;;;26.38;17.05;;;19.00;73.90;;;;;;5001748;28;20484;-65
2023/12/03 16:12:54;;;;;;;25.33;15.32;;;19.00;73.90;;;;;;5006089;28;20022;-64
2023/12/03 16:15:21;;;;;;;26.20;15.70;;;19.00;73.90;;;;;;4997263;28;20034;-64
2023/12/03 16:17:50;;;;;;;22.52;15.38;;;19.00;73.90;;;;;;4997676;28;20031;-64
2023/12/03 16:20:16;;;;;;;23.73;15.65;;;19.00;73.90;;;;;;5001223;28;20109;-63
2023/12/03 16:22:42;;;;;;;21.50;14.57;;;18.90;73.90;;;;;;5013485;28;20155;-62
2023/12/03 16:25:08;;;;;;;20.52;14.10;;;18.90;73.90;;;;;;4999276;28;20412;-64
2023/12/03 16:27:33;;;;;;;21.85;13.68;;;18.90;73.90;;;;;;4995568;28;20023;-63
2023/12/03 16:29:59;;;;;;;21.23;14.25;;;18.90;73.90;;;;;;4993843;28;20033;-64
2023/12/03 16:32:25;;;;;;;18.58;12.82;;;18.90;73.90;;;;;;4991395;28;20036;-63
2023/12/03 16:34:51;;;;;;;17.40;12.40;;;18.90;73.90;;;;;;5019489;28;20028;-64
2023/12/03 16:37:17;;;;;;;15.50;11.23;;;18.90;73.90;;;;;;4993869;28;20026;-63
2023/12/03 16:39:44;;;;;;;15.43;10.90;;;18.90;73.90;;;;;;4987718;28;20425;-63
2023/12/03 16:42:10;;;;;;;17.65;11.80;;;18.90;73.90;;;;;;5013067;28;20143;-64
2023/12/03 16:44:36;;;;;;;18.08;12.07;;;18.90;73.90;;;;;;5013167;28;20100;-63
2023/12/03 16:47:02;;;;;;;17.20;9.82;;;18.90;73.80;;;;;;5001411;28;20113;-63
2023/12/03 16:49:28;;;;;;;15.40;10.63;;;18.80;73.80;;;;;;4998505;28;20508;-62
2023/12/03 16:51:53;;;;;;;15.43;10.75;;;18.90;73.80;;;;;;5009268;28;20026;-63
2023/12/03 16:54:19;;;;;;;14.55;9.45;;;18.80;73.80;;;;;;4991104;28;20041;-63
2023/12/03 16:56:45;;;;;;;14.30;9.13;;;18.80;73.80;;;;;;5005804;28;20022;-60
2023/12/03 16:59:11;;;;;;;14.82;8.57;;;18.80;73.80;;;;;;4997088;28;20021;-63
2023/12/03 17:01:36;;;;;;;11.38;8.18;;;18.80;73.80;;;;;;4986113;28;20023;-62
2023/12/03 17:04:02;;;;;;;15.05;8.85;;;18.90;73.70;;;;;;4991921;28;20122;-62
2023/12/03 17:06:28;;;;;;;12.15;8.02;;;18.80;73.70;;;;;;5008460;28;20031;-63
2023/12/03 17:08:53;;;;;;;12.93;9.05;;;18.80;73.70;;;;;;5011685;28;20432;-62
2023/12/03 17:11:19;;;;;;;13.25;8.48;;;18.80;73.70;;;;;;4982860;28;20031;-62
2023/12/03 17:13:45;;;;;;;11.05;7.72;;;18.80;73.70;;;;;;5009371;28;20053;-62
2023/12/03 17:16:11;;;;;;;11.20;7.63;;;18.80;73.70;;;;;;4997793;28;20034;-62
2023/12/03 17:18:37;;;;;;;11.93;7.65;;;18.80;73.70;;;;;;4995539;28;20018;-62
2023/12/03 17:21:04;;;;;;;10.45;7.68;;;18.80;73.70;;;;;;5005184;28;20024;-62
2023/12/03 17:23:29;;;;;;;12.15;7.75;;;18.80;73.70;;;;;;4998391;28;20026;-62
2023/12/03 17:25:55;;;;;;;12.52;7.38;;;18.80;73.70;;;;;;4992034;28;20558;-62
2023/12/03 17:28:21;;;;;;;10.93;7.03;;;18.80;73.70;;;;;;5005776;28;20021;-62
2023/12/03 17:30:47;;;;;;;13.13;8.35;;;18.80;73.70;;;;;;5018491;28;20505;-61
2023/12/03 17:33:14;;;;;;;15.32;9.90;;;18.80;74.40;;;;;;4998682;28;20504;-62
2023/12/03 17:35:39;;;;;;;15.93;9.45;;;18.80;74.90;;;;;;4987316;28;20027;-63
2023/12/03 17:38:05;;;;;;;14.27;9.02;;;18.80;75.30;;;;;;4991747;28;20022;-64
2023/12/03 17:40:30;;;;;;;14.77;9.02;;;18.80;75.60;;;;;;5012461;28;20022;-63
2023/12/03 17:42:56;;;;;;;18.20;10.73;;;18.80;75.80;;;;;;4995019;28;20049;-63
2023/12/03 17:45:25;;;;;;;15.23;9.52;;;18.80;76.10;;;;;;5009415;28;20027;-62
2023/12/03 17:47:51;;;;;;;16.45;9.75;;;18.90;76.00;;;;;;5004659;28;20493;-62
2023/12/03 17:50:17;;;;;;;17.60;9.52;;;18.90;75.80;;;;;;4995568;28;20033;-62
2023/12/03 17:52:43;;;;;;;14.18;9.00;;;18.90;75.60;;;;;;5010951;28;20029;-64
2023/12/03 17:55:08;;;;;;;14.63;8.68;;;18.90;75.40;;;;;;5011469;28;20034;-63
2023/12/03 17:57:34;;;;;;;13.52;8.88;;;18.90;75.20;;;;;;4991452;28;20057;-62
2023/12/03 18:00:00;;;;;;;11.95;7.90;;;18.90;75.10;;;;;;4987467;28;20014;-62
2023/12/03 18:02:25;;;;;;;19.08;8.85;;;18.90;75.00;;;;;;5023036;28;20021;-65
2023/12/03 18:04:51;;;;;;;31.23;16.27;;;18.90;75.00;;;;;;5034615;28;20031;-61
2023/12/03 18:07:17;;;;;;;28.40;16.02;;;18.90;75.40;;;;;;5008820;28;20019;-65
2023/12/03 18:09:45;;;;;;;32.03;15.00;;;19.00;76.00;;;;;;5010264;28;20027;-63
2023/12/03 18:12:17;;;;;;;31.90;16.13;;;19.00;76.20;;;;;;5009921;28;20022;-64
2023/12/03 18:14:46;;;;;;;38.13;15.93;;;19.10;76.30;;;;;;5004447;28;20035;-64
2023/12/03 18:17:14;;;;;;;27.75;13.32;;;19.20;76.30;;;;;;5007240;28;20035;-65
2023/12/03 18:19:41;;;;;;;22.77;12.82;;;19.30;76.20;;;;;;4997978;28;20033;-64
2023/12/03 18:22:07;;;;;;;29.27;12.13;;;19.30;75.80;;;;;;4993641;28;20022;-64
2023/12/03 18:24:33;;;;;;;21.52;11.02;;;19.30;75.60;;;;;;5001244;28;20030;-63
2023/12/03 18:26:59;;;;;;;18.88;10.30;;;19.30;75.50;;;;;;5007911;28;20035;-64
2023/12/03 18:29:26;;;;;;;37.33;12.00;;;19.30;75.60;;;;;;4994836;28;20019;-64
2023/12/03 18:31:52;;;;;;;15.70;13.15;;;19.30;73.20;;;;;;4980497;28;20101;-66
2023/12/03 18:34:17;;;;;;;13.68;12.27;;;18.70;48.00;;;;;;5004556;28;20038;-66
2023/12/03 18:36:43;;;;;;;14.32;12.05;;;18.00;42.40;;;;;;5014565;28;20116;-65
2023/12/03 18:39:10;;;;;;;14.25;12.27;;;17.30;41.10;;;;;;4982127;28;20113;-65
2023/12/03 18:41:35;;;;;;;15.00;12.27;;;16.40;41.00;;;;;;5001527;28;20026;-65
2023/12/03 18:44:01;;;;;;;14.82;11.93;;;15.60;42.00;;;;;;4982054;28;20182;-65
2023/12/03 18:46:27;;;;;;;15.05;12.73;;;14.90;42.60;;;;;;4982545;28;20017;-64
2023/12/03 18:48:52;;;;;;;13.98;12.10;;;14.30;42.70;;;;;;4981142;28;20034;-66
2023/12/03 18:51:18;;;;;;;12.35;9.77;;;13.70;43.90;;;;;;4991286;28;20022;-65
2023/12/03 18:53:44;;;;;;;12.27;10.32;;;13.30;44.30;;;;;;5002278;28;20450;-64
2023/12/03 18:56:10;;;;;;;14.48;11.90;;;13.00;45.80;;;;;;4997059;28;20022;-66
2023/12/03 18:58:37;;;;;;;12.18;10.55;;;12.60;46.50;;;;;;4997775;28;20049;-64
2023/12/03 19:01:03;;;;;;;11.95;9.77;;;12.40;46.00;;;;;;4999078;28;20051;-65
2023/12/03 19:03:28;;;;;;;25.90;14.45;;;12.10;46.60;;;;;;4998411;28;20022;-62
2023/12/03 19:05:55;;;;;;;34.33;15.40;;;12.10;55.50;;;;;;5003773;28;20429;-64
2023/12/03 19:08:24;;;;;;;27.67;16.05;;;12.80;72.90;;;;;;4989581;28;20034;-65
2023/12/03 19:10:51;;;;;;;34.30;15.40;;;13.50;81.30;;;;;;5001572;28;20132;-67
2023/12/03 19:13:21;;;;;;;30.50;13.57;;;14.20;81.40;;;;;;5007171;28;20023;-67
2023/12/03 19:15:50;;;;;;;28.33;14.20;;;14.70;80.70;;;;;;4998643;28;20385;-67
2023/12/03 19:18:16;;;;;;;25.73;13.48;;;15.20;78.90;;;;;;5007061;28;20110;-67
2023/12/03 19:20:42;;;;;;;27.20;13.07;;;15.60;77.20;;;;;;4998065;28;20052;-66
2023/12/03 19:23:08;;;;;;;22.00;10.73;;;15.80;76.00;;;;;;5000840;28;20097;-65
2023/12/03 19:25:34;;;;;;;21.35;10.95;;;16.10;75.00;;;;;;4998601;28;20029;-67
2023/12/03 19:27:59;;;;;;;19.38;10.18;;;16.30;74.30;;;;;;4999445;28;20101;-67
2023/12/03 19:30:25;;;;;;;24.95;10.40;;;16.40;73.80;;;;;;5006349;28;20385;-65
2023/12/03 19:32:51;;;;;;;18.77;10.00;;;16.50;73.50;;;;;;4995299;28;20022;-66
2023/12/03 19:35:17;;;;;;;18.80;9.90;;;16.60;73.10;;;;;;4998511;28;20566;-64
2023/12/03 19:37:43;;;;;;;21.08;8.60;;;16.70;72.90;;;;;;5009503;28;20026;-64
2023/12/03 19:40:09;;;;;;;19.10;9.88;;;16.80;72.60;;;;;;5005136;28;20436;-62
2023/12/03 19:42:35;;;;;;;21.52;10.23;;;16.80;72.60;;;;;;5004091;28;20027;-63
2023/12/03 19:45:00;;;;;;;19.42;9.50;;;16.90;72.40;;;;;;5011284;28;20026;-63
2023/12/03 19:47:26;;;;;;;17.30;8.15;;;16.90;72.10;;;;;;5017014;28;20037;-63
2023/12/03 19:49:52;;;;;;;15.35;8.98;;;17.00;71.80;;;;;;5002273;28;20094;-63
2023/12/03 19:52:18;;;;;;;18.02;8.77;;;17.00;71.60;;;;;;5001717;28;20022;-63
2023/12/03 19:54:44;;;;;;;16.25;8.98;;;17.00;71.50;;;;;;5007781;28;20026;-63
2023/12/03 19:57:11;;;;;;;16.23;8.35;;;17.10;71.30;;;;;;4999513;28;20026;-63
2023/12/03 19:59:37;;;;;;;16.13;8.35;;;17.10;71.20;;;;;;5001245;28;20022;-62
2023/12/03 20:02:03;;;;;;;13.23;6.97;;;17.10;71.20;;;;;;5001390;28;20091;-63
2023/12/03 20:04:29;;;;;;;15.15;7.45;;;17.20;71.20;;;;;;5006946;28;20155;-63
2023/12/03 20:06:55;;;;;;;9.60;5.95;;;17.20;71.20;;;;;;5002170;28;20037;-62
2023/12/03 20:09:21;;;;;;;12.13;6.65;;;17.20;71.20;;;;;;4997547;28;20038;-63
2023/12/03 20:11:47;;;;;;;14.07;6.88;;;17.20;71.20;;;;;;4998671;28;20155;-63
2023/12/03 20:14:13;;;;;;;12.27;6.20;;;17.20;71.20;;;;;;5001092;28;20117;-63
2023/12/03 20:16:38;;;;;;;9.98;5.88;;;17.30;71.20;;;;;;5002646;28;20104;-62
2023/12/03 20:19:05;;;;;;;13.18;5.28;;;17.30;71.20;;;;;;5000263;28;20026;-63
2023/12/03 20:21:32;;;;;;;8.60;5.22;;;17.20;71.20;;;;;;4998538;28;20474;-63
2023/12/03 20:23:58;;;;;;;9.38;5.50;;;17.30;71.30;;;;;;4998703;28;20023;-63
2023/12/03 20:26:24;;;;;;;9.38;5.60;;;17.30;71.30;;;;;;5001301;28;20022;-63
2023/12/03 20:28:49;;;;;;;10.15;4.97;;;17.30;71.30;;;;;;4995648;28;20023;-63
2023/12/03 20:31:16;;;;;;;9.02;5.20;;;17.30;71.30;;;;;;4999082;28;20432;-63
2023/12/03 20:33:42;;;;;;;7.72;5.05;;;17.40;71.30;;;;;;5000633;28;20277;-62
2023/12/03 20:36:11;;;;;;;10.18;5.10;;;17.40;71.30;;;;;;5000300;28;20512;-63
2023/12/03 20:38:37;;;;;;;8.20;5.20;;;17.40;71.30;;;;;;5002647;28;20025;-64
2023/12/03 20:41:04;;;;;;;8.40;5.30;;;17.40;71.20;;;;;;5007302;28;20105;-63
2023/12/03 20:43:30;;;;;;;9.93;5.13;;;17.50;71.20;;;;;;4999068;28;20022;-63
2023/12/03 20:45:55;;;;;;;9.07;4.90;;;17.50;71.20;;;;;;4998082;28;20042;-62
2023/12/03 20:48:21;;;;;;;11.15;4.53;;;17.50;71.20;;;;;;5002121;28;20017;-62
2023/12/03 20:50:47;;;;;;;7.90;4.78;;;17.50;71.20;;;;;;5007879;28;20035;-63
2023/12/03 20:53:16;;;;;;;9.05;4.47;;;17.50;71.10;;;;;;4979294;28;20110;-63
2023/12/03 20:55:41;;;;;;;7.93;4.57;;;17.50;71.10;;;;;;4980653;28;20117;-62
2023/12/03 20:58:07;;;;;;;7.07;4.32;;;17.60;71.10;;;;;;4988903;28;20061;-63
2023/12/03 21:00:33;;;;;;;8.63;4.43;;;17.60;71.00;;;;;;5000879;28;20101;-63
2023/12/03 21:02:58;;;;;;;7.43;4.60;;;17.60;71.10;;;;;;5016941;28;20022;-63
2023/12/03 21:05:24;;;;;;;9.43;4.90;;;17.60;71.10;;;;;;5013077;28;20026;-63
2023/12/03 21:07:50;;;;;;;8.82;5.22;;;17.70;71.10;;;;;;5014682;28;20056;-64
2023/12/03 21:10:17;;;;;;;7.00;4.72;;;17.70;71.00;;;;;;5017401;28;20032;-64
2023/12/03 21:12:43;;;;;;;7.25;4.57;;;17.70;71.00;;;;;;5018890;28;20030;-63
2023/12/03 21:15:09;;;;;;;8.18;4.88;;;17.70;71.10;;;;;;5006735;28;20053;-63
2023/12/03 21:17:35;;;;;;;8.45;4.93;;;17.70;71.20;;;;;;4998716;28;20107;-63
2023/12/03 21:20:01;;;;;;;11.10;6.88;;;17.70;71.20;;;;;;4998001;28;20480;-63
2023/12/03 21:22:26;;;;;;;13.18;7.82;;;17.80;71.20;;;;;;5005663;28;20017;-63
2023/12/03 21:24:52;;;;;;;15.70;10.15;;;17.70;71.20;;;;;;5002291;28;20401;-62
2023/12/03 21:27:18;;;;;;;16.38;11.30;;;17.80;71.20;;;;;;4999547;28;20054;-62
2023/12/03 21:29:43;;;;;;;17.88;11.38;;;17.80;71.20;;;;;;5001850;28;20392;-62
2023/12/03 21:32:10;;;;;;;18.05;12.55;;;17.80;71.10;;;;;;4998436;28;20026;-63
2023/12/03 21:34:36;;;;;;;19.88;13.77;;;17.80;71.20;;;;;;5003091;28;20050;-63
2023/12/03 21:37:02;;;;;;;18.42;13.20;;;17.90;71.20;;;;;;5010543;28;20022;-62
2023/12/03 21:39:29;;;;;;;19.48;12.90;;;17.80;71.20;;;;;;5002056;28;20034;-61
2023/12/03 21:41:54;;;;;;;18.73;12.90;;;17.90;71.20;;;;;;4997345;28;20022;-61
2023/12/03 21:44:21;;;;;;;18.95;13.07;;;17.80;71.20;;;;;;4991468;28;20378;-62
2023/12/03 21:46:47;;;;;;;17.23;11.75;;;17.90;71.10;;;;;;4999910;28;20050;-62
2023/12/03 21:49:12;;;;;;;15.40;11.20;;;17.90;71.10;;;;;;4990355;28;20106;-62
2023/12/03 21:51:38;;;;;;;19.48;14.43;;;17.90;70.90;;;;;;4988137;28;20099;-62
2023/12/03 21:54:04;;;;;;;25.65;19.85;;;17.90;71.00;;;;;;4987180;28;20031;-62
2023/12/03 21:56:30;;;;;;;24.63;18.52;;;17.90;70.90;;;;;;4991456;28;20014;-63
2023/12/03 21:58:56;;;;;;;25.38;18.75;;;18.00;71.00;;;;;;4994527;28;20078;-62
2023/12/03 22:01:22;;;;;;;24.70;17.70;;;18.00;71.10;;;;;;4985565;28;20034;-62
2023/12/03 22:03:48;;;;;;;25.75;18.75;;;18.00;71.30;;;;;;4985005;28;20069;-63
2023/12/03 22:06:14;;;;;;;24.30;17.17;;;18.10;71.40;;;;;;4989412;28;20030;-62
2023/12/03 22:08:39;;;;;;;22.58;16.38;;;18.20;71.60;;;;;;4989685;28;20060;-62
2023/12/03 22:11:05;;;;;;;22.38;16.05;;;18.20;71.60;;;;;;4983671;28;20627;-66
2023/12/03 22:13:31;;;;;;;24.85;13.63;;;18.30;71.50;;;;;;4985188;28;20498;-66
2023/12/03 22:15:56;;;;;;;16.98;11.80;;;18.30;71.30;;;;;;4994464;28;20087;-66
2023/12/03 22:18:22;;;;;;;17.30;12.02;;;18.20;71.30;;;;;;4999614;28;20067;-66
2023/12/03 22:20:48;;;;;;;16.23;11.38;;;18.20;71.30;;;;;;4998930;28;20370;-66
2023/12/03 22:23:13;;;;;;;17.27;12.32;;;18.20;71.30;;;;;;4991816;28;20031;-66
2023/12/03 22:25:39;;;;;;;14.65;10.90;;;18.20;71.30;;;;;;4995352;28;20101;-66
2023/12/03 22:28:05;;;;;;;24.60;12.60;;;18.20;71.30;;;;;;4990150;28;20043;-66
2023/12/03 22:30:30;;;;;;;17.98;11.65;;;18.20;71.50;;;;;;4991523;28;20068;-66
2023/12/03 22:32:56;;;;;;;23.52;13.05;;;18.20;71.40;;;;;;4990966;28;20085;-67
2023/12/03 22:35:21;;;;;;;18.52;12.20;;;18.20;71.50;;;;;;4984455;28;20027;-66
2023/12/03 22:37:47;;;;;;;21.83;13.23;;;18.20;71.60;;;;;;4987664;28;20030;-67
2023/12/03 22:40:13;;;;;;;17.95;12.18;;;18.20;71.70;;;;;;4992928;28;20031;-70
2023/12/03 22:42:38;;;;;;;18.73;11.95;;;18.30;71.70;;;;;;4995257;28;20019;-68
2023/12/03 22:45:04;;;;;;;18.90;12.40;;;18.20;71.80;;;;;;4991742;28;20030;-67
2023/12/03 22:47:32;;;;;;;17.17;12.15;;;18.20;71.80;;;;;;4988272;28;20030;-67
2023/12/03 22:49:57;;;;;;;17.40;11.98;;;18.20;71.90;;;;;;4988507;28;20076;-67
2023/12/03 22:52:23;;;;;;;14.93;10.35;;;18.20;71.90;;;;;;4990214;28;20042;-67
2023/12/03 22:54:49;;;;;;;26.70;16.17;;;18.20;71.90;;;;;;4985896;28;20041;-67
2023/12/03 22:57:15;;;;;;;17.50;11.98;;;18.30;72.00;;;;;;4989534;28;20497;-70
2023/12/03 22:59:42;;;;;;;14.82;11.65;;;18.30;72.10;;;;;;4971975;28;20030;-67
2023/12/03 23:02:08;;;;;;;16.80;11.77;;;18.30;72.20;;;;;;4992683;28;20061;-66
2023/12/03 23:04:33;;;;;;;15.32;10.68;;;18.30;72.20;;;;;;4994390;28;20045;-67
2023/12/03 23:06:59;;;;;;;15.77;11.00;;;18.40;72.20;;;;;;4993197;28;20437;-66
2023/12/03 23:09:24;;;;;;;14.93;10.90;;;18.40;72.20;;;;;;4980083;28;20023;-67
2023/12/03 23:11:50;;;;;;;19.10;12.55;;;18.30;72.20;;;;;;4978712;28;20015;-67
2023/12/03 23:14:16;;;;;;;19.83;12.43;;;18.40;72.30;;;;;;4990665;28;20034;-69
2023/12/03 23:16:42;;;;;;;15.60;10.48;;;18.40;72.40;;;;;;4982973;28;20508;-67
2023/12/03 23:19:11;;;;;;;15.20;10.85;;;18.40;72.40;;;;;;4981566;28;20544;-69
2023/12/03 23:21:38;;;;;;;17.52;10.50;;;18.40;72.40;;;;;;4979804;28;20486;-68
2023/12/03 23:24:06;;;;;;;21.17;10.57;;;18.40;72.50;;;;;;4980432;28;20045;-67
2023/12/03 23:26:34;;;;;;;15.32;10.45;;;18.50;72.60;;;;;;4982462;28;20489;-67
2023/12/03 23:29:00;;;;;;;16.30;10.88;;;18.50;72.60;;;;;;4981057;28;20027;-67
2023/12/03 23:31:25;;;;;;;14.40;9.85;;;18.50;72.60;;;;;;4979666;28;20481;-67
2023/12/03 23:33:51;;;;;;;14.93;10.40;;;18.50;72.60;;;;;;4979317;28;20069;-68
2023/12/03 23:36:16;;;;;;;18.30;10.88;;;18.40;72.60;;;;;;4981773;28;20026;-68
2023/12/03 23:38:42;;;;;;;13.25;8.98;;;18.50;72.70;;;;;;4983027;28;20023;-66
2023/12/03 23:41:08;;;;;;;13.15;9.50;;;18.50;72.80;;;;;;4972064;28;20440;-67
2023/12/03 23:43:33;;;;;;;14.98;10.32;;;18.50;72.80;;;;;;4971725;28;20030;-66
2023/12/03 23:46:02;;;;;;;13.85;8.95;;;18.50;72.90;;;;;;4970665;28;20038;-65
2023/12/03 23:48:28;;;;;;;13.98;9.38;;;18.50;72.80;;;;;;4971352;28;20023;-66
2023/12/03 23:50:54;;;;;;;14.32;9.82;;;18.50;72.90;;;;;;4971901;28;20386;-67
2023/12/03 23:53:20;;;;;;;13.85;8.73;;;18.50;72.80;;;;;;4981229;28;20494;-68
2023/12/03 23:55:46;;;;;;;12.30;8.68;;;18.50;72.90;;;;;;4980550;28;20027;-68
2023/12/03 23:58:11;;;;;;;13.18;9.27;;;18.50;72.90;;;;;;5004535;28;20026;-66
